createdAt,value
2019-03-16T00:02:11.693Z,1.15
2019-03-16T00:04:40.770Z,0.53
2019-03-16T00:07:09.607Z,0.40
2019-03-16T00:09:38.565Z,0.47
2019-03-16T00:12:08.421Z,0.47
2019-03-16T00:14:37.506Z,0.85
2019-03-16T00:17:06.758Z,0.57
2019-03-16T00:19:35.876Z,0.40
2019-03-16T00:22:04.756Z,0.20
2019-03-16T00:24:33.690Z,0.20
2019-03-16T00:27:02.476Z,0.20
2019-03-16T00:29:31.458Z,0.25
2019-03-16T00:32:12.982Z,0.80
2019-03-16T00:34:29.412Z,0.33
2019-03-16T00:36:58.227Z,0.53
2019-03-16T00:39:27.061Z,0.10
2019-03-16T00:41:56.261Z,0.55
2019-03-16T00:44:24.984Z,0.15
2019-03-16T00:46:54.038Z,0.28
2019-03-16T00:49:22.756Z,0.20
2019-03-16T00:51:51.780Z,0.37
2019-03-16T00:54:22.158Z,0.40
2019-03-16T00:56:51.538Z,0.20
2019-03-16T00:59:22.999Z,0.62
2019-03-16T01:01:52.748Z,0.20
2019-03-16T01:04:21.524Z,0.30
2019-03-16T01:06:50.341Z,0.80
2019-03-16T01:09:19.625Z,0.57
2019-03-16T01:11:48.598Z,0.20
2019-03-16T01:14:20.051Z,0.10
2019-03-16T01:16:51.716Z,0.20
2019-03-16T01:19:20.507Z,1.00
2019-03-16T01:21:49.692Z,0.20
2019-03-16T01:24:18.798Z,0.40
2019-03-16T01:26:49.009Z,0.10
2019-03-16T01:29:17.805Z,0.30
2019-03-16T01:31:46.550Z,0.45
2019-03-16T01:34:15.429Z,0.40
2019-03-16T01:36:44.177Z,0.20
2019-03-16T01:39:12.951Z,0.45
2019-03-16T01:41:41.844Z,0.62
2019-03-16T01:44:11.535Z,0.30
2019-03-16T01:46:40.679Z,2.40
2019-03-16T01:49:09.436Z,0.47
2019-03-16T01:51:40.469Z,0.30
2019-03-16T01:54:09.640Z,0.30
2019-03-16T01:56:39.390Z,0.90
2019-03-16T01:59:08.175Z,3.17
2019-03-16T02:01:36.953Z,0.20
2019-03-16T02:04:07.706Z,1.25
2019-03-16T02:06:39.039Z,0.75
2019-03-16T02:09:10.894Z,0.95
2019-03-16T02:11:40.079Z,0.42
2019-03-16T02:14:09.211Z,0.55
2019-03-16T02:16:37.989Z,0.50
2019-03-16T02:19:07.035Z,1.25
2019-03-16T02:21:35.795Z,1.00
2019-03-16T02:24:04.545Z,1.15
2019-03-16T02:26:33.345Z,0.85
2019-03-16T02:29:02.450Z,0.75
2019-03-16T02:31:31.213Z,1.82
2019-03-16T02:34:00.206Z,1.17
2019-03-16T02:36:29.009Z,0.70
2019-03-16T02:38:57.782Z,1.17
2019-03-16T02:41:27.843Z,1.25
2019-03-16T02:43:56.584Z,0.75
2019-03-16T02:46:25.377Z,1.80
2019-03-16T02:48:54.137Z,2.45
2019-03-16T02:51:22.948Z,4.12
2019-03-16T02:53:55.941Z,3.00
2019-03-16T02:56:24.660Z,1.37
2019-03-16T02:58:54.431Z,3.83
2019-03-16T03:01:23.220Z,2.08
2019-03-16T03:03:52.252Z,1.10
2019-03-16T03:06:22.039Z,1.17
2019-03-16T03:08:51.104Z,0.93
2019-03-16T03:11:20.477Z,3.00
2019-03-16T03:13:50.451Z,1.17
2019-03-16T03:16:27.557Z,1.85
2019-03-16T03:18:56.289Z,2.85
2019-03-16T03:21:25.007Z,0.75
2019-03-16T03:23:54.060Z,2.25
2019-03-16T03:26:23.187Z,4.20
2019-03-16T03:28:51.943Z,4.45
2019-03-16T03:31:20.950Z,1.62
2019-03-16T03:33:59.835Z,4.92
2019-03-16T03:36:18.944Z,3.30
2019-03-16T03:38:47.743Z,4.15
2019-03-16T03:41:16.788Z,6.10
2019-03-16T03:43:45.796Z,2.87
2019-03-16T03:46:15.133Z,4.15
2019-03-16T03:48:43.910Z,3.98
2019-03-16T03:51:13.012Z,3.80
2019-03-16T03:53:43.113Z,3.42
2019-03-16T03:56:12.289Z,4.20
2019-03-16T03:58:41.111Z,3.92
2019-03-16T04:01:09.915Z,3.92
2019-03-16T04:03:39.777Z,1.93
2019-03-16T04:06:08.513Z,3.58
2019-03-16T04:08:37.274Z,5.08
2019-03-16T04:11:06.096Z,3.93
2019-03-16T04:13:35.152Z,4.55
2019-03-16T04:16:03.963Z,5.85
2019-03-16T04:18:33.002Z,4.62
2019-03-16T04:21:04.303Z,3.10
2019-03-16T04:23:33.437Z,4.00
2019-03-16T04:26:03.213Z,2.30
2019-03-16T04:28:32.248Z,5.90
2019-03-16T04:31:01.397Z,4.70
2019-03-16T04:33:30.373Z,3.58
2019-03-16T04:35:59.874Z,5.45
2019-03-16T04:38:28.627Z,6.22
2019-03-16T04:40:57.641Z,4.20
2019-03-16T04:43:26.368Z,2.15
2019-03-16T04:45:55.117Z,4.10
2019-03-16T04:48:24.222Z,3.42
2019-03-16T04:50:53.360Z,2.77
2019-03-16T04:53:22.640Z,3.52
2019-03-16T04:55:51.777Z,3.58
2019-03-16T04:58:21.443Z,4.62
2019-03-16T05:00:51.301Z,4.87
2019-03-16T05:03:21.110Z,3.58
2019-03-16T05:05:56.128Z,4.40
2019-03-16T05:08:24.895Z,4.53
2019-03-16T05:10:54.119Z,5.25
2019-03-16T05:13:22.864Z,5.10
2019-03-16T05:15:51.659Z,3.58
2019-03-16T05:18:21.170Z,5.95
2019-03-16T05:20:49.970Z,6.50
2019-03-16T05:23:19.508Z,4.17
2019-03-16T05:25:48.229Z,4.03
2019-03-16T05:28:17.290Z,3.85
2019-03-16T05:30:45.991Z,3.65
2019-03-16T05:33:15.010Z,2.98
2019-03-16T05:35:43.773Z,6.28
2019-03-16T05:38:12.495Z,10.38
2019-03-16T05:40:41.258Z,6.53
2019-03-16T05:43:10.334Z,10.40
2019-03-16T05:45:39.042Z,5.03
2019-03-16T05:48:07.848Z,3.12
2019-03-16T05:50:36.614Z,4.17
2019-03-16T05:53:05.456Z,5.37
2019-03-16T05:55:34.214Z,7.80
2019-03-16T05:58:03.013Z,11.00
2019-03-16T06:00:31.789Z,6.55
2019-03-16T06:03:00.886Z,6.40
2019-03-16T06:05:29.938Z,7.55
2019-03-16T06:07:58.902Z,7.00
2019-03-16T06:10:28.364Z,8.96
2019-03-16T06:12:57.448Z,13.65
2019-03-16T06:15:26.249Z,6.55
2019-03-16T06:17:55.310Z,8.28
2019-03-16T06:20:24.162Z,4.22
2019-03-16T06:22:52.918Z,5.10
2019-03-16T06:25:22.297Z,7.95
2019-03-16T06:27:51.527Z,8.40
2019-03-16T06:30:21.065Z,14.85
2019-03-16T06:32:49.404Z,9.63
2019-03-16T06:35:26.393Z,7.35
2019-03-16T06:37:48.234Z,6.65
2019-03-16T06:40:17.000Z,10.82
2019-03-16T06:42:45.801Z,9.95
2019-03-16T06:45:14.569Z,10.90
2019-03-16T06:47:43.371Z,9.65
2019-03-16T06:50:12.131Z,7.33
2019-03-16T06:52:41.855Z,8.58
2019-03-16T06:55:10.980Z,7.97
2019-03-16T06:57:40.987Z,11.75
2019-03-16T07:00:10.344Z,12.28
2019-03-16T07:02:39.152Z,9.03
2019-03-16T07:05:09.248Z,9.50
2019-03-16T07:07:40.024Z,10.13
2019-03-16T07:10:09.396Z,8.83
2019-03-16T07:12:38.209Z,7.20
2019-03-16T07:15:07.380Z,9.80
2019-03-16T07:17:36.212Z,10.65
2019-03-16T07:20:05.393Z,10.47
2019-03-16T07:22:34.167Z,8.90
2019-03-16T07:25:02.956Z,10.38
2019-03-16T07:27:33.190Z,12.00
2019-03-16T07:30:01.971Z,9.57
2019-03-16T07:32:30.766Z,9.65
2019-03-16T07:34:59.546Z,7.87
2019-03-16T07:37:28.313Z,8.50
2019-03-16T07:39:57.209Z,10.30
2019-03-16T07:42:25.938Z,7.87
2019-03-16T07:45:07.272Z,11.53
2019-03-16T07:47:23.477Z,9.80
2019-03-16T07:49:55.978Z,11.38
2019-03-16T07:52:26.039Z,9.73
2019-03-16T07:54:55.003Z,8.25
2019-03-16T07:57:23.995Z,8.65
2019-03-16T07:59:53.772Z,9.33
2019-03-16T08:02:22.830Z,6.25
2019-03-16T08:04:52.265Z,9.53
2019-03-16T08:07:21.984Z,6.83
2019-03-16T08:09:52.287Z,9.15
2019-03-16T08:12:22.287Z,9.17
2019-03-16T08:14:52.216Z,9.38
2019-03-16T08:17:21.956Z,8.93
2019-03-16T08:19:51.008Z,7.40
2019-03-16T08:22:21.765Z,7.45
2019-03-16T08:24:50.572Z,6.53
2019-03-16T08:27:19.598Z,4.85
2019-03-16T08:29:48.365Z,5.55
2019-03-16T08:32:17.415Z,7.85
2019-03-16T08:34:46.286Z,4.78
2019-03-16T08:37:15.107Z,5.62
2019-03-16T08:39:43.899Z,3.98
2019-03-16T08:42:12.693Z,4.58
2019-03-16T08:44:41.711Z,6.08
2019-03-16T08:47:10.448Z,6.00
2019-03-16T08:49:39.267Z,5.67
2019-03-16T08:52:08.051Z,6.15
2019-03-16T08:54:37.096Z,5.78
2019-03-16T08:57:05.845Z,10.28
2019-03-16T08:59:34.613Z,8.80
2019-03-16T09:02:03.401Z,7.20
2019-03-16T09:04:32.194Z,12.45
2019-03-16T09:07:01.089Z,9.38
2019-03-16T09:09:29.864Z,9.08
2019-03-16T09:11:59.045Z,8.03
2019-03-16T09:14:28.880Z,8.43
2019-03-16T09:16:58.558Z,6.80
2019-03-16T09:19:27.463Z,7.37
2019-03-16T09:21:56.508Z,8.85
2019-03-16T09:24:25.253Z,10.23
2019-03-16T09:26:54.104Z,7.87
2019-03-16T09:29:22.994Z,6.08
2019-03-16T09:31:52.484Z,5.78
2019-03-16T09:34:21.328Z,9.53
2019-03-16T09:36:50.038Z,9.13
2019-03-16T09:39:18.942Z,7.33
2019-03-16T09:41:47.820Z,12.03
2019-03-16T09:44:16.617Z,9.75
2019-03-16T09:46:45.474Z,7.22
2019-03-16T09:49:27.248Z,7.08
2019-03-16T09:51:56.083Z,7.10
2019-03-16T09:54:25.056Z,7.12
2019-03-16T09:57:01.242Z,7.70
2019-03-16T09:59:22.858Z,10.95
2019-03-16T10:01:53.591Z,9.53
2019-03-16T10:04:26.687Z,10.20
2019-03-16T10:07:03.041Z,9.80
2019-03-16T10:09:33.915Z,5.40
2019-03-16T10:12:03.808Z,4.37
2019-03-16T10:14:37.271Z,7.42
2019-03-16T10:17:04.505Z,6.67
2019-03-16T10:19:33.232Z,4.37
2019-03-16T10:22:02.367Z,7.40
2019-03-16T10:24:33.491Z,6.72
2019-03-16T10:27:02.230Z,6.58
2019-03-16T10:29:33.072Z,6.37
2019-03-16T10:32:01.854Z,8.75
2019-03-16T10:34:30.646Z,6.77
2019-03-16T10:36:59.504Z,4.50
2019-03-16T10:39:28.747Z,6.20
2019-03-16T10:41:57.541Z,5.00
2019-03-16T10:44:26.345Z,4.35
2019-03-16T10:46:55.215Z,5.47
2019-03-16T10:49:24.099Z,4.08
2019-03-16T10:51:54.027Z,5.75
2019-03-16T10:54:23.024Z,7.95
2019-03-16T10:56:51.858Z,7.35
2019-03-16T10:59:20.671Z,7.35
2019-03-16T11:01:50.468Z,6.22
2019-03-16T11:04:19.256Z,5.67
2019-03-16T11:06:48.042Z,7.60
2019-03-16T11:09:16.839Z,4.03
2019-03-16T11:11:45.688Z,6.87
2019-03-16T11:14:14.576Z,5.53
2019-03-16T11:16:43.322Z,5.37
2019-03-16T11:19:12.092Z,6.33
2019-03-16T11:21:42.087Z,5.58
2019-03-16T11:24:10.900Z,7.30
2019-03-16T11:26:39.714Z,3.05
2019-03-16T11:29:09.517Z,5.72
2019-03-16T11:31:37.480Z,4.67
2019-03-16T11:34:06.252Z,3.00
2019-03-16T11:36:35.065Z,3.58
2019-03-16T11:39:05.047Z,3.55
2019-03-16T11:41:34.144Z,3.80
2019-03-16T11:44:03.451Z,4.10
2019-03-16T11:46:32.172Z,3.40
2019-03-16T11:49:01.437Z,4.25
2019-03-16T11:51:30.751Z,3.75
2019-03-16T11:53:59.542Z,1.70
2019-03-16T11:56:28.335Z,3.65
2019-03-16T11:58:57.103Z,2.33
2019-03-16T12:01:27.025Z,4.53
2019-03-16T12:03:55.797Z,4.05
2019-03-16T12:06:25.183Z,5.50
2019-03-16T12:08:54.038Z,4.20
2019-03-16T12:11:23.407Z,4.28
2019-03-16T12:13:52.180Z,3.45
2019-03-16T12:16:21.008Z,2.42
2019-03-16T12:18:50.045Z,4.28
2019-03-16T12:21:18.901Z,5.10
2019-03-16T12:23:47.873Z,3.85
2019-03-16T12:26:16.654Z,4.42
2019-03-16T12:28:45.432Z,5.70
2019-03-16T12:31:18.887Z,2.50
2019-03-16T12:33:47.699Z,2.40
2019-03-16T12:36:16.579Z,2.02
2019-03-16T12:38:45.376Z,2.77
2019-03-16T12:41:14.280Z,1.45
2019-03-16T12:43:43.043Z,1.87
2019-03-16T12:46:12.120Z,4.30
2019-03-16T12:48:45.306Z,2.40
2019-03-16T12:51:14.399Z,2.15
2019-03-16T12:53:44.145Z,1.30
2019-03-16T12:56:12.999Z,1.95
2019-03-16T12:58:42.751Z,2.37
2019-03-16T13:01:12.855Z,1.22
2019-03-16T13:03:41.618Z,1.62
2019-03-16T13:06:13.766Z,2.35
2019-03-16T13:08:58.558Z,1.27
2019-03-16T13:11:12.901Z,3.17
2019-03-16T13:13:41.730Z,1.40
2019-03-16T13:16:11.596Z,1.87
2019-03-16T13:18:41.353Z,1.17
2019-03-16T13:21:10.142Z,2.85
2019-03-16T13:23:39.950Z,1.22
2019-03-16T13:26:08.746Z,1.35
2019-03-16T13:28:37.536Z,1.35
2019-03-16T13:31:10.467Z,3.15
2019-03-16T13:33:36.069Z,2.42
2019-03-16T13:36:04.882Z,1.42
2019-03-16T13:38:34.040Z,1.70
2019-03-16T13:41:02.880Z,2.33
2019-03-16T13:43:32.821Z,1.20
2019-03-16T13:46:04.309Z,2.63
2019-03-16T13:48:31.122Z,1.07
2019-03-16T13:51:00.452Z,1.47
2019-03-16T13:53:32.771Z,1.32
2019-03-16T13:56:00.668Z,3.42
2019-03-16T13:58:29.547Z,0.70
2019-03-16T14:01:01.655Z,2.47
2019-03-16T14:03:30.483Z,1.52
2019-03-16T14:05:59.304Z,1.25
2019-03-16T14:08:30.211Z,2.02
2019-03-16T14:14:08.917Z,2.70
2019-03-16T14:16:55.237Z,2.08
2019-03-16T14:19:38.779Z,1.95
2019-03-16T14:22:08.915Z,1.25
2019-03-16T14:24:43.026Z,2.17
2019-03-16T14:27:14.977Z,1.40
2019-03-16T14:29:50.851Z,1.82
2019-03-16T14:32:21.095Z,2.58
2019-03-16T14:34:54.317Z,1.82
2019-03-16T14:37:23.986Z,1.00
2019-03-16T14:40:02.967Z,0.70
2019-03-16T14:42:42.202Z,2.83
2019-03-16T14:45:12.337Z,3.25
2019-03-16T14:47:41.291Z,1.60
2019-03-16T14:50:15.961Z,0.88
2019-03-16T14:52:41.693Z,1.90
2019-03-16T14:55:10.552Z,1.02
2019-03-16T14:57:39.402Z,1.47
2019-03-16T15:00:10.788Z,0.62
2019-03-16T15:02:39.663Z,0.93
2019-03-16T15:05:08.533Z,1.63
2019-03-16T15:07:37.512Z,0.75
2019-03-16T15:10:08.413Z,2.37
2019-03-16T15:12:37.490Z,0.72
2019-03-16T15:15:09.358Z,0.88
2019-03-16T15:17:38.292Z,2.55
2019-03-16T15:20:07.375Z,2.17
2019-03-16T15:22:38.480Z,0.82
2019-03-16T15:25:07.272Z,0.70
2019-03-16T15:27:37.119Z,1.45
2019-03-16T15:30:08.127Z,5.05
2019-03-16T15:35:18.409Z,1.00
2019-03-16T15:38:01.709Z,1.47
2019-03-16T15:40:32.471Z,2.20
2019-03-16T15:43:01.288Z,1.27
2019-03-16T15:45:33.222Z,1.90
2019-03-16T15:48:02.285Z,1.67
2019-03-16T15:50:39.242Z,5.60
2019-03-16T15:53:18.269Z,1.75
2019-03-16T15:55:53.191Z,0.95
2019-03-16T15:58:23.049Z,1.15
2019-03-16T16:01:03.837Z,0.57
2019-03-16T16:03:31.165Z,0.53
2019-03-16T16:05:59.982Z,0.20
2019-03-16T16:08:28.767Z,0.72
2019-03-16T16:11:01.379Z,0.42
2019-03-16T16:13:28.152Z,1.07
2019-03-16T16:16:06.405Z,2.25
2019-03-16T16:18:59.784Z,0.70
2019-03-16T16:21:29.809Z,0.72
2019-03-16T16:23:58.576Z,2.05
2019-03-16T16:26:29.118Z,0.30
2019-03-16T16:28:58.324Z,1.65
2019-03-16T16:31:28.351Z,1.07
2019-03-16T16:34:02.765Z,0.35
2019-03-16T16:36:28.853Z,1.67
2019-03-16T16:38:58.129Z,2.60
2019-03-16T16:41:27.280Z,2.62
2019-03-16T16:43:56.411Z,1.72
2019-03-16T16:46:25.244Z,3.35
2019-03-16T16:48:54.026Z,5.58
2019-03-16T16:51:22.827Z,5.62
2019-03-16T16:53:51.600Z,13.70
2019-03-16T16:56:20.671Z,22.87
2019-03-16T16:58:49.525Z,36.53
2019-03-16T17:01:28.787Z,22.45
2019-03-16T17:03:48.203Z,48.75
2019-03-16T17:06:17.256Z,47.83
2019-03-16T17:08:46.060Z,35.15
2019-03-16T17:11:15.126Z,10.38
2019-03-16T17:13:44.081Z,7.67
2019-03-16T17:16:12.816Z,2.30
2019-03-16T17:18:41.717Z,2.67
2019-03-16T17:21:10.480Z,2.20
2019-03-16T17:23:39.742Z,1.10
2019-03-16T17:26:09.542Z,0.60
2019-03-16T17:28:39.634Z,0.82
2019-03-16T17:31:11.430Z,1.65
2019-03-16T17:33:41.216Z,0.65
2019-03-16T17:36:11.037Z,3.83
2019-03-16T17:38:41.109Z,1.47
2019-03-16T17:41:12.185Z,2.63
2019-03-16T17:46:10.168Z,3.75
2019-03-16T17:48:38.868Z,2.85
2019-03-16T17:51:08.670Z,4.37
2019-03-16T17:53:38.226Z,2.20
2019-03-16T17:56:07.137Z,1.98
2019-03-16T17:58:36.211Z,5.37
2019-03-16T18:01:05.435Z,1.05
2019-03-16T18:03:34.485Z,1.55
2019-03-16T18:06:04.494Z,2.27
2019-03-16T18:08:34.252Z,3.52
2019-03-16T18:11:05.329Z,5.97
2019-03-16T18:13:36.837Z,1.35
2019-03-16T18:16:09.419Z,1.95
2019-03-16T18:18:38.162Z,1.85
2019-03-16T18:21:07.168Z,2.00
2019-03-16T18:23:38.232Z,2.67
2019-03-16T18:26:07.049Z,3.07
2019-03-16T18:28:38.173Z,6.22
2019-03-16T18:31:07.986Z,3.15
2019-03-16T18:33:50.461Z,6.93
2019-03-16T18:36:19.439Z,2.95
2019-03-16T18:38:48.775Z,3.27
2019-03-16T18:41:17.627Z,3.98
2019-03-16T18:43:46.395Z,3.55
2019-03-16T18:46:15.678Z,5.20
2019-03-16T18:48:48.772Z,6.25
2019-03-16T18:51:18.579Z,8.90
2019-03-16T18:53:54.791Z,10.32
2019-03-16T18:56:23.808Z,11.85
2019-03-16T18:58:52.918Z,10.03
2019-03-16T19:01:23.673Z,17.12
2019-03-16T19:03:54.513Z,16.87
2019-03-16T19:06:34.012Z,9.70
2019-03-16T19:09:03.025Z,9.93
2019-03-16T19:11:31.803Z,9.75
2019-03-16T19:14:01.912Z,10.93
2019-03-16T19:16:36.488Z,8.98
2019-03-16T19:19:05.266Z,13.58
2019-03-16T19:21:34.334Z,10.58
2019-03-16T19:24:03.723Z,8.10
2019-03-16T19:26:32.799Z,10.80
2019-03-16T19:29:03.557Z,6.30
2019-03-16T19:31:33.415Z,10.40
2019-03-16T19:34:02.189Z,9.87
2019-03-16T19:36:31.053Z,10.58
2019-03-16T19:39:00.151Z,9.83
2019-03-16T19:41:29.973Z,11.03
2019-03-16T19:43:59.038Z,9.50
2019-03-16T19:46:27.903Z,11.88
2019-03-16T19:48:56.756Z,10.40
2019-03-16T19:51:25.539Z,9.88
2019-03-16T19:53:56.356Z,11.65
2019-03-16T19:56:25.450Z,9.65
2019-03-16T19:59:00.565Z,12.05
2019-03-16T20:01:26.342Z,10.50
2019-03-16T20:03:55.899Z,14.07
2019-03-16T20:06:26.221Z,15.95
2019-03-16T20:08:54.430Z,12.90
2019-03-16T20:11:23.225Z,14.58
2019-03-16T20:13:52.380Z,15.03
2019-03-16T20:16:21.591Z,13.45
2019-03-16T20:18:50.773Z,15.88
2019-03-16T20:21:19.563Z,11.75
2019-03-16T20:23:48.361Z,11.40
2019-03-16T20:26:17.455Z,11.38
2019-03-16T20:28:46.353Z,11.57
2019-03-16T20:31:15.064Z,17.65
2019-03-16T20:33:45.884Z,11.43
2019-03-16T20:36:14.689Z,14.23
2019-03-16T20:38:44.587Z,17.23
2019-03-16T20:41:14.765Z,17.67
2019-03-16T20:43:52.551Z,12.30
2019-03-16T20:46:21.338Z,12.43
2019-03-16T20:48:50.177Z,14.38
2019-03-16T20:51:18.989Z,13.90
2019-03-16T20:53:48.010Z,11.48
2019-03-16T20:56:17.069Z,12.65
2019-03-16T20:58:45.915Z,11.45
2019-03-16T21:01:15.725Z,11.95
2019-03-16T21:03:44.461Z,18.35
2019-03-16T21:06:13.522Z,15.18
2019-03-16T21:08:42.327Z,13.05
2019-03-16T21:11:12.415Z,12.73
2019-03-16T21:13:41.162Z,18.23
2019-03-16T21:16:09.938Z,13.68
2019-03-16T21:18:38.915Z,15.35
2019-03-16T21:21:08.750Z,14.58
2019-03-16T21:23:37.548Z,14.13
2019-03-16T21:26:08.738Z,14.00
2019-03-16T21:28:37.991Z,15.35
2019-03-16T21:31:06.913Z,13.05
2019-03-16T21:33:37.682Z,14.78
2019-03-16T21:36:06.710Z,14.68
2019-03-16T21:38:36.481Z,18.73
2019-03-16T21:41:17.958Z,14.20
2019-03-16T21:43:46.777Z,12.53
2019-03-16T21:46:16.576Z,12.58
2019-03-16T21:48:45.374Z,16.13
2019-03-16T21:51:14.424Z,15.08
2019-03-16T21:53:43.227Z,13.40
2019-03-16T21:56:15.389Z,12.75
2019-03-16T21:58:44.203Z,12.55
2019-03-16T22:01:12.980Z,13.78
2019-03-16T22:03:42.432Z,12.93
2019-03-16T22:06:10.871Z,12.28
2019-03-16T22:08:39.929Z,15.00
2019-03-16T22:11:08.755Z,11.17
2019-03-16T22:13:37.558Z,11.15
2019-03-16T22:16:07.337Z,9.18
2019-03-16T22:18:37.449Z,10.20
2019-03-16T22:21:06.272Z,12.78
2019-03-16T22:23:35.280Z,12.37
2019-03-16T22:26:04.043Z,14.25
2019-03-16T22:28:34.115Z,13.00
2019-03-16T22:31:02.846Z,16.03
2019-03-16T22:33:31.980Z,13.78
2019-03-16T22:36:01.637Z,17.50
2019-03-16T22:38:30.427Z,17.50
2019-03-16T22:40:59.757Z,19.27
2019-03-16T22:43:28.488Z,17.50
2019-03-16T22:45:57.633Z,16.07
2019-03-16T22:48:26.396Z,17.70
2019-03-16T22:50:55.193Z,19.75
2019-03-16T22:53:24.024Z,18.20
2019-03-16T22:55:53.090Z,14.50
2019-03-16T22:58:21.851Z,14.70
2019-03-16T23:00:51.398Z,15.58
2019-03-16T23:03:20.451Z,14.80
2019-03-16T23:05:49.182Z,15.70
2019-03-16T23:08:17.928Z,13.22
2019-03-16T23:10:46.938Z,12.93
2019-03-16T23:13:15.726Z,14.98
2019-03-16T23:15:44.495Z,16.80
2019-03-16T23:18:14.839Z,13.50
2019-03-16T23:20:43.906Z,13.47
2019-03-16T23:23:13.497Z,13.62
2019-03-16T23:25:42.309Z,16.05
2019-03-16T23:28:11.084Z,12.60
2019-03-16T23:30:39.879Z,13.68
2019-03-16T23:33:08.679Z,12.40
2019-03-16T23:35:38.487Z,15.00
2019-03-16T23:38:07.285Z,15.40
2019-03-16T23:40:38.114Z,15.65
2019-03-16T23:43:07.589Z,11.48
2019-03-16T23:45:36.419Z,13.05
2019-03-16T23:48:05.211Z,15.08
2019-03-16T23:50:44.305Z,10.65
2019-03-16T23:53:13.377Z,14.43
2019-03-16T23:55:44.140Z,16.48
2019-03-16T23:58:14.259Z,12.93
